Time;durP1;ratioP1;P1;durP2;ratioP2;P2;SDS_P1;SDS_P2;PMS_P1;PMS_P2;Temp;Humidity;BMP_temperature;BMP_pressure;BME280_temperature;BME280_humidity;BME280_pressure;Samples;Min_cycle;Max_cycle;Signal;HPM_P1;HPM_P2
2024/03/03 00:01:19;;;;;;;;;;;;;;;20.69;53.84;99971.89;2340144;76;50295;-79
2024/03/03 00:04:20;;;;;;;;;;;;;;;20.69;53.81;99974.05;2353180;74;50368;-78
2024/03/03 00:07:22;;;;;;;;;;;;;;;20.69;53.78;99969.20;2340255;76;50014;-78
2024/03/03 00:10:23;;;;;;;;;;;;;;;20.69;53.75;99973.23;2357728;74;51701;-79
2024/03/03 00:13:27;;;;;;;;;;;;;;;20.68;53.73;99964.35;2380945;74;50627;-78
2024/03/03 00:16:28;;;;;;;;;;;;;;;20.68;53.70;99964.84;2342805;74;22950;-80
2024/03/03 00:19:30;;;;;;;;;;;;;;;20.68;53.67;99966.19;2334623;76;50265;-78
2024/03/03 00:22:34;;;;;;;;;;;;;;;20.68;53.65;99968.88;2326987;75;51531;-78
2024/03/03 00:25:36;;;;;;;;;;;;;;;20.67;53.63;99965.38;2318610;76;50427;-79
2024/03/03 00:28:37;;;;;;;;;;;;;;;20.69;53.61;99966.52;2306716;77;50737;-78
2024/03/03 00:31:47;;;;;;;;;;;;;;;20.66;53.53;99965.89;2316722;75;50670;-78
2024/03/03 00:34:46;;;;;;;;;;;;;;;20.66;53.50;99964.55;2327275;75;22395;-79
2024/03/03 00:37:47;;;;;;;;;;;;;;;20.66;53.45;99956.48;2351780;75;50668;-80
2024/03/03 00:40:49;;;;;;;;;;;;;;;20.65;53.47;99952.16;2348458;75;51457;-79
2024/03/03 00:43:50;;;;;;;;;;;;;;;20.65;53.38;99949.48;2326243;76;50217;-78
2024/03/03 00:46:52;;;;;;;;;;;;;;;20.65;53.36;99954.85;2348940;75;49580;-78
2024/03/03 00:49:54;;;;;;;;;;;;;;;20.65;53.29;99947.28;2325934;76;50307;-79
2024/03/03 00:52:56;;;;;;;;;;;;;;;20.63;53.28;99948.86;2325644;76;51510;-79
2024/03/03 00:55:57;;;;;;;;;;;;;;;20.64;53.21;99947.80;2325977;76;51521;-79
2024/03/03 00:58:59;;;;;;;;;;;;;;;20.64;53.19;99951.84;2349950;75;50976;-78
2024/03/03 01:02:01;;;;;;;;;;;;;;;20.64;53.17;99947.80;2338730;75;51439;-79
2024/03/03 01:05:02;;;;;;;;;;;;;;;20.64;53.17;99953.70;2365938;75;50279;-77
2024/03/03 01:08:04;;;;;;;;;;;;;;;20.62;53.11;99947.19;2348794;75;50359;-79
2024/03/03 01:11:05;;;;;;;;;;;;;;;20.62;53.11;99945.84;2297493;76;51009;-78
2024/03/03 01:14:09;;;;;;;;;;;;;;;20.62;53.09;99941.81;2325847;76;51482;-79
2024/03/03 01:17:10;;;;;;;;;;;;;;;20.63;53.05;99945.35;2325163;76;50667;-78
2024/03/03 01:20:15;;;;;;;;;;;;;;;20.62;53.00;99947.72;2335519;76;50595;-78
2024/03/03 01:23:16;;;;;;;;;;;;;;;20.61;53.02;99944.20;2315251;76;50970;-79
2024/03/03 01:26:18;;;;;;;;;;;;;;;20.61;52.98;99945.55;2347277;76;51386;-79
2024/03/03 01:29:19;;;;;;;;;;;;;;;20.60;52.97;99946.60;2347908;76;51432;-79
2024/03/03 01:32:27;;;;;;;;;;;;;;;20.61;52.96;99951.45;2349001;76;51442;-79
2024/03/03 01:35:25;;;;;;;;;;;;;;;20.61;53.07;99952.80;2315776;76;22342;-79
2024/03/03 01:38:27;;;;;;;;;;;;;;;20.60;52.99;99955.16;2317136;76;51531;-79
2024/03/03 01:41:29;;;;;;;;;;;;;;;20.61;52.94;99958.17;2349239;76;51569;-79
2024/03/03 01:44:30;;;;;;;;;;;;;;;20.60;52.90;99956.50;2349144;76;50667;-79
2024/03/03 01:47:32;;;;;;;;;;;;;;;20.59;52.87;99947.63;2316454;76;50800;-79
2024/03/03 01:50:33;;;;;;;;;;;;;;;20.60;52.85;99956.50;2349200;76;51508;-79
2024/03/03 01:53:35;;;;;;;;;;;;;;;20.59;52.86;99946.80;2349144;76;50259;-79
2024/03/03 01:56:37;;;;;;;;;;;;;;;20.59;52.82;99951.66;2348982;75;50200;-79
2024/03/03 01:59:39;;;;;;;;;;;;;;;20.59;52.81;99944.11;2316836;76;50084;-79
2024/03/03 02:02:40;;;;;;;;;;;;;;;20.58;52.80;99946.51;2349136;76;52608;-79
2024/03/03 02:05:42;;;;;;;;;;;;;;;20.58;52.75;99941.13;2349166;76;50339;-79
2024/03/03 02:08:43;;;;;;;;;;;;;;;20.58;52.75;99947.33;2349052;76;50694;-80
2024/03/03 02:11:45;;;;;;;;;;;;;;;20.57;52.74;99940.28;2316412;76;50099;-79
2024/03/03 02:14:46;;;;;;;;;;;;;;;20.57;52.72;99940.28;2348628;76;50195;-79
2024/03/03 02:17:49;;;;;;;;;;;;;;;20.56;52.72;99930.58;2348760;76;50036;-79
2024/03/03 02:20:51;;;;;;;;;;;;;;;20.57;52.71;99940.81;2348908;75;50623;-79
2024/03/03 02:23:52;;;;;;;;;;;;;;;20.57;52.68;99934.09;2316909;75;50914;-79
2024/03/03 02:26:54;;;;;;;;;;;;;;;20.56;52.67;99927.89;2317103;76;52581;-80
2024/03/03 02:29:55;;;;;;;;;;;;;;;20.56;52.66;99927.89;2349646;76;51473;-81
2024/03/03 02:32:57;;;;;;;;;;;;;;;20.56;52.64;99929.24;2348471;76;51490;-80
2024/03/03 02:35:58;;;;;;;;;;;;;;;20.56;52.67;99930.58;2347350;76;51353;-79
2024/03/03 02:39:00;;;;;;;;;;;;;;;20.55;52.62;99923.58;2315183;76;51567;-79
2024/03/03 02:42:02;;;;;;;;;;;;;;;20.56;52.63;99921.70;2347726;76;50304;-79
2024/03/03 02:45:03;;;;;;;;;;;;;;;20.55;52.63;99920.88;2347889;76;50291;-79
2024/03/03 02:48:05;;;;;;;;;;;;;;;20.55;52.62;99919.55;2290725;76;54220;-79
2024/03/03 02:51:07;;;;;;;;;;;;;;;20.55;52.60;99927.61;2291188;76;51772;-78
2024/03/03 02:54:08;;;;;;;;;;;;;;;20.54;52.56;99922.39;2347922;76;50599;-79
2024/03/03 02:57:10;;;;;;;;;;;;;;;20.54;52.60;99920.56;2349269;76;50148;-79
2024/03/03 03:00:12;;;;;;;;;;;;;;;20.53;52.58;99910.83;2316871;76;50032;-80
2024/03/03 03:03:13;;;;;;;;;;;;;;;20.54;52.60;99919.71;2316143;76;50258;-78
2024/03/03 03:06:15;;;;;;;;;;;;;;;20.55;52.58;99909.28;2348070;76;50301;-79
2024/03/03 03:09:16;;;;;;;;;;;;;;;20.54;52.58;99911.16;2349525;76;50706;-79
2024/03/03 03:12:18;;;;;;;;;;;;;;;20.54;52.55;99915.19;2316527;76;50866;-79
2024/03/03 03:15:19;;;;;;;;;;;;;;;20.54;52.51;99915.19;2349066;76;51539;-79
2024/03/03 03:18:21;;;;;;;;;;;;;;;20.54;52.49;99909.81;2348920;76;51416;-79
2024/03/03 03:21:24;;;;;;;;;;;;;;;20.54;52.48;99909.81;2349308;76;51584;-79
2024/03/03 03:24:29;;;;;;;;;;;;;;;20.54;52.48;99907.13;2316386;76;52422;-79
2024/03/03 03:27:31;;;;;;;;;;;;;;;20.54;52.47;99908.95;2349560;76;50622;-80
2024/03/03 03:30:33;;;;;;;;;;;;;;;20.54;52.48;99908.47;2348926;76;50349;-78
2024/03/03 03:33:34;;;;;;;;;;;;;;;20.55;52.43;99906.59;2348441;76;50341;-78
2024/03/03 03:36:36;;;;;;;;;;;;;;;20.55;52.42;99907.94;2316260;76;50042;-79
2024/03/03 03:39:38;;;;;;;;;;;;;;;20.54;52.40;99903.09;2316245;76;50695;-79
2024/03/03 03:42:40;;;;;;;;;;;;;;;20.55;52.36;99902.56;2349369;76;51751;-79
2024/03/03 03:45:41;;;;;;;;;;;;;;;20.54;52.39;99904.44;2349297;76;50701;-79
2024/03/03 03:48:43;;;;;;;;;;;;;;;20.54;52.34;99904.44;2316484;76;51021;-80
2024/03/03 03:51:45;;;;;;;;;;;;;;;20.54;52.36;99904.92;2349391;76;50644;-79
2024/03/03 03:54:47;;;;;;;;;;;;;;;20.54;52.36;99902.23;2349137;76;50494;-79
2024/03/03 03:57:48;;;;;;;;;;;;;;;20.54;52.32;99909.81;2347718;76;50595;-78
2024/03/03 04:00:50;;;;;;;;;;;;;;;20.54;52.34;99902.23;2314755;76;50941;-79
2024/03/03 04:03:51;;;;;;;;;;;;;;;20.54;52.31;99904.44;2315035;76;50968;-79
2024/03/03 04:06:53;;;;;;;;;;;;;;;20.54;52.28;99904.44;2347344;76;51526;-79
2024/03/03 04:09:55;;;;;;;;;;;;;;;20.54;52.25;99896.38;2347631;76;51486;-79
2024/03/03 04:12:56;;;;;;;;;;;;;;;20.54;52.24;99903.59;2315483;76;52491;-78
2024/03/03 04:15:58;;;;;;;;;;;;;;;20.54;52.21;99900.89;2347949;76;51501;-79
2024/03/03 04:19:00;;;;;;;;;;;;;;;20.53;52.21;99905.45;2349185;76;51408;-79
2024/03/03 04:22:02;;;;;;;;;;;;;;;20.53;52.23;99909.48;2351558;75;51451;-79
2024/03/03 04:25:04;;;;;;;;;;;;;;;20.54;52.21;99903.09;2322864;75;50119;-79
2024/03/03 04:28:06;;;;;;;;;;;;;;;20.53;52.19;99894.70;2323647;75;51476;-80
2024/03/03 04:31:07;;;;;;;;;;;;;;;20.53;52.18;99893.36;2352777;75;51453;-78
2024/03/03 04:34:13;;;;;;;;;;;;;;;20.54;52.19;99888.80;2352467;75;50764;-79
2024/03/03 04:37:12;;;;;;;;;;;;;;;20.54;52.19;99890.15;2351873;75;22995;-80
2024/03/03 04:40:14;;;;;;;;;;;;;;;20.54;52.19;99885.63;2353232;75;51511;-79
2024/03/03 04:43:15;;;;;;;;;;;;;;;20.54;52.20;99888.80;2323129;75;51444;-79
2024/03/03 04:46:17;;;;;;;;;;;;;;;20.53;52.20;99889.33;2352845;75;51456;-79
2024/03/03 04:49:19;;;;;;;;;;;;;;;20.53;52.17;99889.33;2352722;75;51630;-79
2024/03/03 04:52:20;;;;;;;;;;;;;;;20.54;52.16;99885.63;2322037;75;51737;-79
2024/03/03 04:55:22;;;;;;;;;;;;;;;20.54;52.15;99884.28;2351458;75;51526;-79
2024/03/03 04:58:23;;;;;;;;;;;;;;;20.53;52.15;99881.27;2352121;75;51514;-80
2024/03/03 05:01:26;;;;;;;;;;;;;;;20.53;52.16;99883.95;2351288;75;51458;-79
2024/03/03 05:04:27;;;;;;;;;;;;;;;20.53;52.15;99883.95;2352396;75;51479;-79
2024/03/03 05:07:29;;;;;;;;;;;;;;;20.53;52.12;99881.27;2324764;75;50572;-79
2024/03/03 05:10:31;;;;;;;;;;;;;;;20.53;52.13;99883.95;2355325;75;50710;-79
2024/03/03 05:13:32;;;;;;;;;;;;;;;20.52;52.10;99880.94;2325813;75;51008;-78
2024/03/03 05:16:34;;;;;;;;;;;;;;;20.53;52.09;99888.52;2354949;75;51588;-77
2024/03/03 05:19:35;;;;;;;;;;;;;;;20.52;52.04;99890.34;2324340;75;51579;-78
2024/03/03 05:22:37;;;;;;;;;;;;;;;20.52;52.22;99895.72;2346271;75;50601;-78
2024/03/03 05:25:38;;;;;;;;;;;;;;;20.52;52.23;99895.72;2356334;74;51443;-78
2024/03/03 05:28:40;;;;;;;;;;;;;;;20.52;52.23;99897.06;2381713;74;50366;-78
2024/03/03 05:31:42;;;;;;;;;;;;;;;20.52;52.26;99899.75;2381521;74;50675;-78
2024/03/03 05:34:43;;;;;;;;;;;;;;;20.52;52.31;99898.41;2381706;74;52125;-78
2024/03/03 05:37:45;;;;;;;;;;;;;;;20.52;52.35;99892.22;2344881;74;49488;-78
2024/03/03 05:40:46;;;;;;;;;;;;;;;20.52;52.35;99898.94;2340685;76;50698;-78
2024/03/03 05:43:48;;;;;;;;;;;;;;;20.51;52.39;99894.09;2340422;76;50155;-78
2024/03/03 05:46:49;;;;;;;;;;;;;;;20.52;52.35;99897.06;2340875;76;50710;-78
2024/03/03 05:49:51;;;;;;;;;;;;;;;20.52;52.42;99895.72;2305763;76;49872;-78
2024/03/03 05:52:53;;;;;;;;;;;;;;;20.52;52.44;99905.66;2340962;76;51665;-77
2024/03/03 05:55:54;;;;;;;;;;;;;;;20.51;52.49;99911.55;2345663;74;51443;-78
2024/03/03 05:58:56;;;;;;;;;;;;;;;20.51;52.50;99915.59;2354875;74;50608;-79
2024/03/03 06:01:58;;;;;;;;;;;;;;;20.51;52.53;99910.21;2357753;74;50828;-79
2024/03/03 06:04:59;;;;;;;;;;;;;;;20.51;52.73;99915.59;2391320;74;51646;-79
2024/03/03 06:08:02;;;;;;;;;;;;;;;20.53;52.76;99914.86;2390730;74;51480;-78
2024/03/03 06:11:03;;;;;;;;;;;;;;;20.52;52.92;99918.56;2390243;74;51501;-79
2024/03/03 06:14:14;;;;;;;;;;;;;;;20.52;52.94;99915.06;2343826;74;51805;-80
2024/03/03 06:17:14;;;;;;;;;;;;;;;20.50;53.12;99921.16;2358306;74;22310;-80
2024/03/03 06:20:16;;;;;;;;;;;;;;;20.53;53.10;99914.05;2391985;74;50403;-79
2024/03/03 06:23:18;;;;;;;;;;;;;;;20.52;53.32;99924.47;2378959;74;50221;-78
2024/03/03 06:26:19;;;;;;;;;;;;;;;20.52;53.34;99921.78;2373680;75;50618;-78
2024/03/03 06:29:21;;;;;;;;;;;;;;;20.52;53.29;99922.59;2373921;75;50699;-79
2024/03/03 06:32:22;;;;;;;;;;;;;;;20.53;53.32;99928.82;2373834;75;51502;-78
2024/03/03 06:35:24;;;;;;;;;;;;;;;20.54;53.35;99923.74;2345872;75;51725;-79
2024/03/03 06:38:25;;;;;;;;;;;;;;;20.53;53.31;99923.45;2342728;75;50009;-79
2024/03/03 06:41:27;;;;;;;;;;;;;;;20.53;53.32;99922.92;2370643;75;51511;-80
2024/03/03 06:44:29;;;;;;;;;;;;;;;20.53;53.36;99922.92;2370999;75;50225;-80
2024/03/03 06:47:32;;;;;;;;;;;;;;;20.55;53.41;99927.61;2370776;75;50321;-78
2024/03/03 06:50:33;;;;;;;;;;;;;;;20.55;53.54;99924.91;2323697;76;50935;-79
2024/03/03 06:53:40;;;;;;;;;;;;;;;20.55;53.41;99938.35;2299686;75;50560;-77
2024/03/03 06:56:42;;;;;;;;;;;;;;;20.54;53.38;99936.69;2330638;76;50302;-78
2024/03/03 06:59:44;;;;;;;;;;;;;;;20.57;53.41;99942.97;2331113;76;51554;-78
2024/03/03 07:06:00;;;;;;;;;;;;;;;20.56;53.37;99934.62;2242813;77;22568;-76
2024/03/03 07:09:02;;;;;;;;;;;;;;;20.56;53.32;99931.92;2246829;79;50719;-77
2024/03/03 07:12:04;;;;;;;;;;;;;;;20.56;53.30;99931.92;2259338;77;51486;-78
2024/03/03 07:15:06;;;;;;;;;;;;;;;20.56;53.26;99939.98;2251696;77;50173;-78
2024/03/03 07:18:07;;;;;;;;;;;;;;;20.57;53.24;99932.75;2280506;77;50107;-78
2024/03/03 07:21:10;;;;;;;;;;;;;;;20.56;53.23;99937.30;2290376;77;49792;-78
2024/03/03 07:24:11;;;;;;;;;;;;;;;20.57;53.24;99946.19;2308747;77;51564;-79
2024/03/03 07:27:13;;;;;;;;;;;;;;;20.58;53.67;99945.16;2277925;77;50045;-79
2024/03/03 07:30:14;;;;;;;;;;;;;;;20.60;54.88;99940.37;2251085;78;50613;-77
2024/03/03 07:33:16;;;;;;;;;;;;;;;20.60;54.38;99931.81;2266342;78;51420;-78
2024/03/03 07:36:17;;;;;;;;;;;;;;;20.60;54.29;99935.00;2267338;78;51526;-77
2024/03/03 07:39:20;;;;;;;;;;;;;;;20.61;54.20;99927.27;2251727;78;52531;-77
2024/03/03 07:42:22;;;;;;;;;;;;;;;20.61;54.16;99932.11;2305557;76;50657;-78
2024/03/03 07:45:24;;;;;;;;;;;;;;;20.62;54.15;99927.03;2339784;76;51498;-79
2024/03/03 07:48:25;;;;;;;;;;;;;;;20.64;54.15;99920.92;2347885;76;50360;-80
2024/03/03 07:51:27;;;;;;;;;;;;;;;20.64;54.09;99922.27;2316499;76;50311;-79
2024/03/03 07:54:29;;;;;;;;;;;;;;;20.64;54.06;99918.23;2346047;76;51485;-78
2024/03/03 07:57:30;;;;;;;;;;;;;;;20.65;54.03;99919.91;2327757;74;51633;-79
2024/03/03 08:00:34;;;;;;;;;;;;;;;20.64;53.94;99933.02;2315719;76;50244;-78
2024/03/03 08:03:36;;;;;;;;;;;;;;;20.65;54.44;99938.72;2282550;76;49475;-78
2024/03/03 08:06:37;;;;;;;;;;;;;;;20.67;54.13;99934.45;2314501;76;50420;-79
2024/03/03 08:09:39;;;;;;;;;;;;;;;20.68;53.94;99937.97;2290272;76;51139;-78
2024/03/03 08:12:41;;;;;;;;;;;;;;;20.68;53.87;99937.97;2320482;75;51491;-80
2024/03/03 08:15:42;;;;;;;;;;;;;;;20.70;53.86;99937.23;2307790;77;51845;-79
2024/03/03 08:18:44;;;;;;;;;;;;;;;20.69;53.80;99935.08;2306979;75;51470;-81
2024/03/03 08:21:46;;;;;;;;;;;;;;;20.69;53.86;99930.23;2332802;74;51356;-79
2024/03/03 08:24:47;;;;;;;;;;;;;;;20.70;53.94;99931.86;2343732;75;52069;-80
2024/03/03 08:27:49;;;;;;;;;;;;;;;20.70;53.97;99925.14;2353651;75;51453;-80
2024/03/03 08:30:50;;;;;;;;;;;;;;;20.74;53.86;99926.38;2338487;75;50344;-79
2024/03/03 08:33:52;;;;;;;;;;;;;;;20.75;53.99;99930.70;2346855;75;51471;-80
2024/03/03 08:36:54;;;;;;;;;;;;;;;20.78;54.02;99926.23;2350973;75;51420;-79
2024/03/03 08:39:56;;;;;;;;;;;;;;;20.80;54.00;99924.98;2326671;75;50982;-79
2024/03/03 08:42:57;;;;;;;;;;;;;;;20.81;53.95;99921.79;2336241;75;51495;-79
2024/03/03 08:45:59;;;;;;;;;;;;;;;20.89;53.99;99925.56;2324976;76;51515;-78
2024/03/03 08:49:00;;;;;;;;;;;;;;;20.90;53.93;99927.20;2327981;75;51411;-82
2024/03/03 08:52:02;;;;;;;;;;;;;;;20.97;53.84;99922.61;2250947;77;50867;-80
2024/03/03 08:55:04;;;;;;;;;;;;;;;20.97;54.22;99921.27;2275928;77;51436;-79
2024/03/03 08:58:06;;;;;;;;;;;;;;;20.99;54.23;99917.84;2276143;77;51202;-78
2024/03/03 09:01:10;;;;;;;;;;;;;;;21.02;54.00;99920.09;2307408;76;50384;-79
2024/03/03 09:04:10;;;;;;;;;;;;;;;21.06;53.90;99919.13;2307835;76;22468;-79
2024/03/03 09:07:12;;;;;;;;;;;;;;;21.08;53.98;99913.84;2307312;77;52290;-78
2024/03/03 09:10:14;;;;;;;;;;;;;;;21.15;53.89;99907.61;2251825;77;50956;-79
2024/03/03 09:13:16;;;;;;;;;;;;;;;21.18;53.87;99905.30;2308438;77;51652;-79
2024/03/03 09:16:17;;;;;;;;;;;;;;;21.20;53.97;99899.70;2252461;77;50117;-78
2024/03/03 09:19:19;;;;;;;;;;;;;;;21.21;53.65;99900.81;2307718;77;51871;-80
2024/03/03 09:22:21;;;;;;;;;;;;;;;21.24;53.37;99906.28;2337019;75;51453;-81
2024/03/03 09:25:22;;;;;;;;;;;;;;;21.25;52.84;99907.95;2371700;74;50820;-78
2024/03/03 09:28:24;;;;;;;;;;;;;;;21.25;52.12;99910.64;2344572;74;50392;-78
2024/03/03 09:31:26;;;;;;;;;;;;;;;21.20;51.77;99909.94;2380035;74;50584;-78
2024/03/03 09:34:27;;;;;;;;;;;;;;;21.15;50.53;99898.19;2336145;74;50923;-79
2024/03/03 09:37:29;;;;;;;;;;;;;;;21.11;50.45;99905.86;2347658;74;51546;-80
2024/03/03 09:40:30;;;;;;;;;;;;;;;21.06;49.98;99918.61;2322956;75;51363;-80
2024/03/03 09:43:38;;;;;;;;;;;;;;;21.06;49.71;99886.33;2339929;76;51419;-83
2024/03/03 09:46:40;;;;;;;;;;;;;;;21.05;48.76;99882.53;2304872;76;50067;-82
2024/03/03 09:49:45;;;;;;;;;;;;;;;21.14;49.39;99885.77;2340061;76;51470;-81
2024/03/03 09:52:47;;;;;;;;;;;;;;;21.29;50.89;99882.23;2293380;76;50121;-81
2024/03/03 09:55:48;;;;;;;;;;;;;;;21.37;50.53;99880.61;2339468;76;50349;-82
2024/03/03 09:58:50;;;;;;;;;;;;;;;21.43;50.78;99887.03;2339773;76;50434;-81
2024/03/03 10:01:52;;;;;;;;;;;;;;;21.47;51.02;99883.66;2339257;76;50343;-77
2024/03/03 10:04:54;;;;;;;;;;;;;;;21.56;51.19;99883.40;2291584;76;49496;-78
2024/03/03 10:07:55;;;;;;;;;;;;;;;21.62;51.05;99882.50;2305413;76;50989;-80
2024/03/03 10:10:58;;;;;;;;;;;;;;;21.65;51.03;99876.14;2342403;76;50749;-80
2024/03/03 10:14:00;;;;;;;;;;;;;;;21.65;51.13;99876.14;2339537;76;50807;-78
2024/03/03 10:17:03;;;;;;;;;;;;;;;21.63;51.32;99871.52;2342656;75;49528;-78
2024/03/03 10:20:08;;;;;;;;;;;;;;;21.69;51.93;99872.50;2316474;76;51183;-79
2024/03/03 10:23:23;;;;;;;;;;;;;;;21.70;51.96;99870.91;2341387;74;51072;-79
2024/03/03 10:26:27;;;;;;;;;;;;;;;21.70;51.82;99863.36;2350892;75;51459;-80
2024/03/03 10:29:28;;;;;;;;;;;;;;;21.72;51.68;99863.97;2356051;75;51423;-80
2024/03/03 10:32:30;;;;;;;;;;;;;;;21.71;51.62;99856.95;2364865;75;51004;-79
2024/03/03 10:35:31;;;;;;;;;;;;;;;21.72;51.66;99852.66;2365345;75;50609;-79
2024/03/03 10:38:33;;;;;;;;;;;;;;;21.71;51.69;99854.25;2367518;75;50674;-78
2024/03/03 10:41:34;;;;;;;;;;;;;;;21.71;51.81;99856.95;2368339;75;50740;-79
2024/03/03 10:44:36;;;;;;;;;;;;;;;21.70;51.72;99857.45;2337250;75;49599;-80
2024/03/03 10:47:38;;;;;;;;;;;;;;;21.69;51.85;99860.38;2337326;75;51407;-79
2024/03/03 10:50:39;;;;;;;;;;;;;;;21.67;51.88;99858.42;2367710;75;50115;-80
2024/03/03 10:53:41;;;;;;;;;;;;;;;21.63;51.81;99863.94;2367908;75;50678;-79
2024/03/03 10:56:42;;;;;;;;;;;;;;;21.59;51.71;99856.84;2312076;75;50903;-78
2024/03/03 10:59:44;;;;;;;;;;;;;;;21.57;51.62;99851.38;2368129;75;51543;-78
2024/03/03 11:02:46;;;;;;;;;;;;;;;21.55;51.69;99857.50;2368322;75;51653;-79
2024/03/03 11:05:48;;;;;;;;;;;;;;;21.53;51.80;99857.22;2367997;75;50752;-78
2024/03/03 11:08:52;;;;;;;;;;;;;;;21.50;51.59;99852.28;2334270;75;50946;-78
2024/03/03 11:12:01;;;;;;;;;;;;;;;21.47;51.61;99848.66;2328070;75;51403;-79
2024/03/03 11:15:07;;;;;;;;;;;;;;;21.46;51.59;99852.41;2326718;76;51440;-79
2024/03/03 11:18:10;;;;;;;;;;;;;;;21.43;51.52;99850.17;2299410;76;51769;-79
2024/03/03 11:21:11;;;;;;;;;;;;;;;21.42;51.47;99845.81;2298380;76;50688;-78
2024/03/03 11:24:13;;;;;;;;;;;;;;;21.39;51.39;99850.30;2331558;76;50699;-78
2024/03/03 11:27:15;;;;;;;;;;;;;;;21.38;51.29;99843.28;2340941;76;51464;-77
2024/03/03 11:30:17;;;;;;;;;;;;;;;21.35;51.25;99835.63;2340419;76;50642;-78
2024/03/03 11:33:18;;;;;;;;;;;;;;;21.33;51.26;99825.59;2305273;76;50983;-77
2024/03/03 11:36:20;;;;;;;;;;;;;;;21.32;51.21;99821.23;2339773;76;51994;-78
2024/03/03 11:39:24;;;;;;;;;;;;;;;21.31;51.22;99817.73;2339279;76;50342;-78
2024/03/03 11:42:30;;;;;;;;;;;;;;;21.34;51.24;99814.30;2339326;76;51566;-78
2024/03/03 11:45:39;;;;;;;;;;;;;;;21.32;51.27;99807.78;2303773;76;51210;-78
2024/03/03 11:48:42;;;;;;;;;;;;;;;21.31;51.17;99806.16;2338986;76;50714;-79
2024/03/03 11:51:43;;;;;;;;;;;;;;;21.30;51.12;99807.21;2338968;76;50946;-79
2024/03/03 11:54:45;;;;;;;;;;;;;;;21.27;51.06;99803.59;2339985;76;50676;-78
2024/03/03 11:57:46;;;;;;;;;;;;;;;21.25;51.08;99798.45;2306011;76;50048;-79
2024/03/03 12:00:48;;;;;;;;;;;;;;;21.24;50.95;99790.59;2341287;76;51755;-78
2024/03/03 12:03:50;;;;;;;;;;;;;;;21.22;50.92;99794.86;2340697;76;50947;-78
2024/03/03 12:06:51;;;;;;;;;;;;;;;21.21;50.91;99788.34;2339813;76;51555;-77
2024/03/03 12:09:53;;;;;;;;;;;;;;;21.20;50.85;99792.09;2331931;76;50934;-79
2024/03/03 12:12:55;;;;;;;;;;;;;;;21.19;50.91;99789.90;2340146;76;51393;-77
2024/03/03 12:15:57;;;;;;;;;;;;;;;21.17;50.89;99787.98;2305247;76;50687;-78
2024/03/03 12:18:59;;;;;;;;;;;;;;;21.15;50.91;99790.06;2340175;76;52597;-77
2024/03/03 12:22:02;;;;;;;;;;;;;;;21.14;50.92;99783.02;2280944;76;52778;-78
2024/03/03 12:25:04;;;;;;;;;;;;;;;21.13;51.03;99782.72;2334985;76;51498;-79
2024/03/03 12:28:06;;;;;;;;;;;;;;;21.14;51.08;99790.27;2326762;76;51725;-78
2024/03/03 12:31:08;;;;;;;;;;;;;;;21.12;51.04;99786.97;2326781;76;50706;-78
2024/03/03 12:34:10;;;;;;;;;;;;;;;21.12;51.08;99791.00;2323056;76;51785;-78
2024/03/03 12:37:11;;;;;;;;;;;;;;;21.10;51.11;99792.59;2326534;76;50670;-79
2024/03/03 12:40:14;;;;;;;;;;;;;;;21.09;51.12;99783.70;2326304;76;50715;-78
2024/03/03 12:43:15;;;;;;;;;;;;;;;21.09;51.08;99790.42;2297065;76;51573;-78
2024/03/03 12:46:17;;;;;;;;;;;;;;;21.08;51.08;99789.28;2322591;76;50983;-78
2024/03/03 12:49:19;;;;;;;;;;;;;;;21.06;51.10;99784.12;2326524;76;51461;-78
2024/03/03 12:52:20;;;;;;;;;;;;;;;21.06;51.08;99782.77;2326302;76;51461;-77
2024/03/03 12:55:23;;;;;;;;;;;;;;;21.06;51.10;99784.64;2326161;76;51482;-77
2024/03/03 12:58:25;;;;;;;;;;;;;;;21.04;51.08;99792.95;2296640;76;52611;-77
2024/03/03 13:01:26;;;;;;;;;;;;;;;21.04;51.07;99794.30;2326119;76;50304;-77
2024/03/03 13:04:29;;;;;;;;;;;;;;;21.03;51.07;99785.91;2326580;76;50358;-78
2024/03/03 13:07:31;;;;;;;;;;;;;;;21.03;51.07;99784.56;2326522;76;50625;-78
2024/03/03 13:10:34;;;;;;;;;;;;;;;21.03;51.04;99777.84;2323543;76;50002;-78
2024/03/03 13:13:35;;;;;;;;;;;;;;;21.01;51.05;99777.75;2297492;76;49971;-78
2024/03/03 13:16:37;;;;;;;;;;;;;;;21.01;51.05;99777.23;2326767;76;51551;-78
2024/03/03 13:19:43;;;;;;;;;;;;;;;21.00;51.00;99775.59;2326588;76;51422;-77
2024/03/03 13:22:44;;;;;;;;;;;;;;;20.99;50.98;99780.69;2272151;76;50089;-78
2024/03/03 13:25:46;;;;;;;;;;;;;;;20.99;50.96;99777.15;2333372;76;50312;-78
2024/03/03 13:28:48;;;;;;;;;;;;;;;20.98;50.93;99774.98;2339442;76;51595;-78
2024/03/03 13:31:50;;;;;;;;;;;;;;;20.97;50.91;99770.66;2338927;76;51542;-77
2024/03/03 13:34:52;;;;;;;;;;;;;;;20.97;50.92;99767.97;2330992;76;50918;-78
2024/03/03 13:37:53;;;;;;;;;;;;;;;20.96;50.92;99768.18;2339185;76;51205;-78
2024/03/03 13:40:55;;;;;;;;;;;;;;;20.96;50.91;99770.38;2339130;76;51386;-78
2024/03/03 13:43:56;;;;;;;;;;;;;;;20.94;50.85;99768.42;2339639;76;51476;-78
2024/03/03 13:46:58;;;;;;;;;;;;;;;20.94;50.82;99785.90;2279512;76;52505;-78
2024/03/03 13:49:59;;;;;;;;;;;;;;;20.95;50.82;99782.16;2339711;76;51440;-79
2024/03/03 13:53:01;;;;;;;;;;;;;;;20.93;50.83;99786.92;2339269;76;51491;-78
2024/03/03 13:56:03;;;;;;;;;;;;;;;20.92;50.77;99783.95;2339212;76;51546;-78
2024/03/03 13:59:06;;;;;;;;;;;;;;;20.92;50.80;99785.29;2330751;75;50067;-77
2024/03/03 14:02:08;;;;;;;;;;;;;;;20.91;50.82;99785.00;2338719;76;51536;-79
2024/03/03 14:05:10;;;;;;;;;;;;;;;20.91;50.77;99788.19;2338796;76;51537;-77
2024/03/03 14:08:12;;;;;;;;;;;;;;;20.90;50.81;99787.37;2304283;76;51500;-77
2024/03/03 14:11:14;;;;;;;;;;;;;;;20.91;50.73;99793.06;2330834;76;51075;-78
2024/03/03 14:14:16;;;;;;;;;;;;;;;20.88;50.75;99792.98;2339203;76;50200;-78
2024/03/03 14:17:18;;;;;;;;;;;;;;;20.87;50.77;99791.31;2339021;76;51493;-77
2024/03/03 14:20:20;;;;;;;;;;;;;;;20.88;50.75;99809.61;2339494;76;50643;-78
2024/03/03 14:23:22;;;;;;;;;;;;;;;20.87;50.77;99799.39;2279606;76;49957;-78
2024/03/03 14:26:23;;;;;;;;;;;;;;;20.87;50.74;99809.33;2332210;76;51380;-78
2024/03/03 14:29:25;;;;;;;;;;;;;;;20.87;50.72;99812.02;2296805;76;50012;-78
2024/03/03 14:32:27;;;;;;;;;;;;;;;20.87;50.69;99820.08;2325482;76;50306;-77
2024/03/03 14:35:28;;;;;;;;;;;;;;;20.86;50.70;99815.23;2322245;76;49539;-78
2024/03/03 14:38:30;;;;;;;;;;;;;;;20.84;50.70;99812.45;2325951;76;50323;-78
2024/03/03 14:41:31;;;;;;;;;;;;;;;20.83;50.70;99811.64;2325920;76;50680;-77
2024/03/03 14:44:33;;;;;;;;;;;;;;;20.83;50.72;99808.10;2325465;76;51464;-77
2024/03/03 14:47:35;;;;;;;;;;;;;;;20.82;50.68;99815.35;2296050;76;49559;-78
2024/03/03 14:50:37;;;;;;;;;;;;;;;20.81;50.70;99811.55;2325479;76;51511;-77
2024/03/03 14:53:38;;;;;;;;;;;;;;;20.81;50.68;99810.21;2325352;76;50691;-79
2024/03/03 14:56:40;;;;;;;;;;;;;;;20.81;50.66;99814.24;2325721;76;50365;-78
2024/03/03 14:59:41;;;;;;;;;;;;;;;20.80;50.70;99816.61;2322445;76;49431;-77
2024/03/03 15:02:43;;;;;;;;;;;;;;;20.80;50.64;99809.89;2326194;76;50254;-78
2024/03/03 15:05:45;;;;;;;;;;;;;;;20.79;50.58;99813.62;2326282;76;50714;-77
2024/03/03 15:08:46;;;;;;;;;;;;;;;20.80;50.59;99809.89;2325636;76;51407;-77
2024/03/03 15:11:48;;;;;;;;;;;;;;;20.78;50.61;99810.63;2322110;76;50981;-77
2024/03/03 15:14:50;;;;;;;;;;;;;;;20.78;50.62;99810.63;2326436;76;50187;-77
2024/03/03 15:17:52;;;;;;;;;;;;;;;20.78;50.55;99798.52;2325624;76;50824;-77
2024/03/03 15:20:57;;;;;;;;;;;;;;;20.78;50.57;99795.83;2334135;75;50311;-77
2024/03/03 15:23:56;;;;;;;;;;;;;;;20.75;51.11;99798.44;2335737;75;40918;-79
2024/03/03 15:26:58;;;;;;;;;;;;;;;20.76;51.00;99796.59;2302545;75;52590;-78
2024/03/03 15:30:00;;;;;;;;;;;;;;;20.76;50.89;99796.07;2351876;74;50222;-79
2024/03/03 15:33:03;;;;;;;;;;;;;;;20.76;50.87;99800.10;2350668;74;50344;-79
2024/03/03 15:36:05;;;;;;;;;;;;;;;20.79;50.80;99790.78;2308959;74;51712;-80
2024/03/03 15:39:08;;;;;;;;;;;;;;;20.80;50.71;99794.57;2342902;74;50567;-80
2024/03/03 15:42:09;;;;;;;;;;;;;;;20.79;50.75;99793.47;2352056;74;50494;-79
2024/03/03 15:45:11;;;;;;;;;;;;;;;20.78;50.72;99789.96;2356601;74;51389;-78
2024/03/03 15:48:13;;;;;;;;;;;;;;;20.77;50.74;99801.73;2310572;74;52342;-77
2024/03/03 15:51:15;;;;;;;;;;;;;;;20.78;50.75;99796.68;2342992;74;51565;-78